createdAt,value
2018-06-15T05:40:25.139Z,4.43
2018-06-15T05:42:58.416Z,4.53
2018-06-15T05:45:34.960Z,4.37
2018-06-15T05:48:07.772Z,4.50
2018-06-15T05:50:40.903Z,4.53
2018-06-15T05:53:11.972Z,4.50
2018-06-15T05:55:41.978Z,4.50
2018-06-15T05:58:11.459Z,4.33
2018-06-15T06:00:40.759Z,4.27
2018-06-15T06:03:14.004Z,4.40
2018-06-15T06:05:43.838Z,4.50
2018-06-15T06:08:13.401Z,4.80
2018-06-15T06:10:45.454Z,4.43
2018-06-15T06:13:15.647Z,4.63
2018-06-15T06:15:47.573Z,4.43
2018-06-15T06:18:16.354Z,4.10
2018-06-15T06:20:46.023Z,5.00
2018-06-15T06:23:15.659Z,4.70
2018-06-15T06:25:49.820Z,4.63
2018-06-15T06:28:20.677Z,4.60
2018-06-15T06:30:50.090Z,4.13
2018-06-15T06:33:24.887Z,4.30
2018-06-15T06:35:57.192Z,4.23
2018-06-15T06:38:27.849Z,4.63
2018-06-15T06:41:00.466Z,4.93
2018-06-15T06:43:35.638Z,4.50
2018-06-15T06:46:06.764Z,4.37
2018-06-15T06:48:43.119Z,4.33
2018-06-15T06:51:14.609Z,4.73
2018-06-15T06:53:57.908Z,4.43
2018-06-15T06:56:26.616Z,4.63
2018-06-15T06:58:57.752Z,4.77
2018-06-15T07:01:27.739Z,4.47
2018-06-15T07:03:58.069Z,4.07
2018-06-15T07:06:27.055Z,4.60
2018-06-15T07:08:56.376Z,4.10
2018-06-15T07:11:33.655Z,4.50
2018-06-15T07:14:04.259Z,4.00
2018-06-15T07:16:34.620Z,4.70
2018-06-15T07:19:03.446Z,4.53
2018-06-15T07:21:32.924Z,4.17
2018-06-15T07:24:03.004Z,4.07
2018-06-15T07:26:32.614Z,3.67
2018-06-15T07:29:01.585Z,4.17
2018-06-15T07:31:33.905Z,4.20
2018-06-15T07:34:04.276Z,3.60
2018-06-15T07:36:33.371Z,4.33
2018-06-15T07:39:02.775Z,4.53
2018-06-15T07:41:32.475Z,4.33
2018-06-15T07:44:01.756Z,3.53
2018-06-15T07:46:39.136Z,3.77
2018-06-15T07:49:11.923Z,4.43
2018-06-15T07:51:45.262Z,3.90
2018-06-15T07:54:18.269Z,4.27
2018-06-15T07:56:52.065Z,4.47
2018-06-15T07:59:22.779Z,4.30
2018-06-15T08:01:51.599Z,4.97
2018-06-15T08:04:22.687Z,4.27
2018-06-15T08:06:51.542Z,4.13
2018-06-15T08:09:22.645Z,4.20
2018-06-15T08:11:52.682Z,4.43
2018-06-15T08:14:22.028Z,4.20
2018-06-15T08:16:52.434Z,3.73
2018-06-15T08:19:22.016Z,3.93
2018-06-15T08:21:51.135Z,4.00
2018-06-15T08:24:20.961Z,4.37
2018-06-15T08:26:51.258Z,3.67
2018-06-15T08:29:24.236Z,3.30
2018-06-15T08:31:58.668Z,4.07
2018-06-15T08:34:34.117Z,4.20
2018-06-15T08:37:06.257Z,3.93
2018-06-15T08:39:37.430Z,3.90
2018-06-15T08:42:06.877Z,3.95
2018-06-15T08:44:36.154Z,3.60
2018-06-15T08:47:05.234Z,3.25
2018-06-15T08:49:36.986Z,3.30
2018-06-15T08:52:06.121Z,3.12
2018-06-15T08:54:39.523Z,3.27
2018-06-15T08:57:08.988Z,3.65
2018-06-15T08:59:37.715Z,3.58
2018-06-15T09:02:09.122Z,3.83
2018-06-15T09:04:38.294Z,3.58
2018-06-15T09:07:07.927Z,3.45
2018-06-15T09:09:38.405Z,3.47
2018-06-15T09:12:10.329Z,3.22
2018-06-15T09:14:46.302Z,3.62
2018-06-15T09:17:18.565Z,3.83
2018-06-15T09:19:48.399Z,3.65
2018-06-15T09:22:17.677Z,3.40
2018-06-15T09:24:52.297Z,3.70
2018-06-15T09:27:24.250Z,3.62
2018-06-15T09:29:53.234Z,4.05
2018-06-15T09:32:22.887Z,3.75
2018-06-15T09:34:51.811Z,3.60
2018-06-15T09:37:20.449Z,3.50
2018-06-15T09:39:50.939Z,3.83
2018-06-15T09:42:22.636Z,3.20
2018-06-15T09:44:57.879Z,3.42
2018-06-15T09:47:26.645Z,4.55
2018-06-15T09:49:55.430Z,3.98
2018-06-15T09:52:24.454Z,4.12
2018-06-15T09:54:56.999Z,3.90
2018-06-15T09:57:32.444Z,3.72
2018-06-15T10:00:05.671Z,3.60
2018-06-15T10:02:34.778Z,3.83
2018-06-15T10:05:07.774Z,3.70
2018-06-15T10:07:39.551Z,3.55
2018-06-15T10:10:08.843Z,3.42
2018-06-15T10:12:37.466Z,3.67
2018-06-15T10:15:06.979Z,3.35
2018-06-15T10:17:40.422Z,3.17
2018-06-15T10:20:10.211Z,3.52
2018-06-15T10:22:39.118Z,3.58
2018-06-15T10:25:08.475Z,3.55
2018-06-15T10:27:37.060Z,3.42
2018-06-15T10:30:10.767Z,3.10
2018-06-15T10:32:46.767Z,3.50
2018-06-15T10:35:15.331Z,4.10
2018-06-15T10:37:44.119Z,3.35
2018-06-15T10:40:13.426Z,3.30
2018-06-15T10:42:42.100Z,3.55
2018-06-15T10:45:10.794Z,3.35
2018-06-15T10:47:40.491Z,3.27
2018-06-15T10:50:13.224Z,3.30
2018-06-15T10:52:43.051Z,3.30
2018-06-15T10:55:11.802Z,3.58
2018-06-15T10:57:44.035Z,3.55
2018-06-15T11:00:13.519Z,3.80
2018-06-15T11:02:42.443Z,3.90
2018-06-15T11:05:11.894Z,3.47
2018-06-15T11:07:41.399Z,3.40
2018-06-15T11:10:10.021Z,3.60
2018-06-15T11:12:39.898Z,3.37
2018-06-15T11:15:09.244Z,3.70
2018-06-15T11:17:40.136Z,3.33
2018-06-15T11:20:15.065Z,3.55
2018-06-15T11:22:43.931Z,3.00
2018-06-15T11:25:13.771Z,3.25
2018-06-15T11:27:47.767Z,3.30
2018-06-15T11:30:17.133Z,3.70
2018-06-15T11:32:49.851Z,3.40
2018-06-15T11:35:23.511Z,3.10
2018-06-15T11:37:57.419Z,3.15
2018-06-15T11:40:31.775Z,3.37
2018-06-15T11:43:05.218Z,3.12
2018-06-15T11:45:36.249Z,3.12
2018-06-15T11:48:06.410Z,3.20
2018-06-15T11:50:36.860Z,3.22
2018-06-15T11:53:06.498Z,3.20
2018-06-15T11:55:39.132Z,3.05
2018-06-15T11:58:12.054Z,3.08
2018-06-15T12:00:42.043Z,3.10
2018-06-15T12:03:12.705Z,3.15
2018-06-15T12:05:45.931Z,3.33
2018-06-15T12:08:14.863Z,4.08
2018-06-15T12:10:44.316Z,3.67
2018-06-15T12:13:13.558Z,3.12
2018-06-15T12:15:43.006Z,3.52
2018-06-15T12:18:11.944Z,3.27
2018-06-15T12:20:43.969Z,3.58
2018-06-15T12:23:14.685Z,3.45
2018-06-15T12:25:43.798Z,3.35
2018-06-15T12:28:16.078Z,3.75
2018-06-15T12:30:46.099Z,3.90
2018-06-15T12:33:17.576Z,3.50
2018-06-15T12:35:46.389Z,3.12
2018-06-15T12:38:17.952Z,3.25
2018-06-15T12:40:50.137Z,3.08
2018-06-15T12:43:23.749Z,3.42
2018-06-15T12:45:53.812Z,3.55
2018-06-15T12:48:24.749Z,3.42
2018-06-15T12:50:53.434Z,3.00
2018-06-15T12:53:22.812Z,3.50
2018-06-15T12:55:51.627Z,3.40
2018-06-15T12:58:22.030Z,3.27
2018-06-15T13:00:52.289Z,3.00
2018-06-15T13:03:25.962Z,3.50
2018-06-15T13:05:59.689Z,3.10
2018-06-15T13:08:30.633Z,3.95
2018-06-15T13:10:59.843Z,3.12
2018-06-15T13:13:28.407Z,3.35
2018-06-15T13:15:58.343Z,3.37
2018-06-15T13:18:28.038Z,3.33
2018-06-15T13:20:56.880Z,3.27
2018-06-15T13:23:29.282Z,3.25
2018-06-15T13:26:03.949Z,3.50
2018-06-15T13:28:42.238Z,3.60
2018-06-15T13:31:14.656Z,3.45
2018-06-15T13:33:55.864Z,3.20
2018-06-15T13:36:26.940Z,3.37
2018-06-15T13:38:59.110Z,2.67
2018-06-15T13:41:36.260Z,3.15
2018-06-15T13:44:05.831Z,3.55
2018-06-15T13:46:35.580Z,3.15
2018-06-15T13:49:06.171Z,3.52
2018-06-15T13:51:35.076Z,3.45
2018-06-15T13:54:03.972Z,3.22
2018-06-15T13:56:33.746Z,3.10
2018-06-15T13:59:03.766Z,3.37
2018-06-15T14:01:36.554Z,2.80
2018-06-15T14:04:06.777Z,3.77
2018-06-15T14:06:35.518Z,4.10
2018-06-15T14:09:05.005Z,4.75
2018-06-15T14:11:34.493Z,4.72
2018-06-15T14:14:04.995Z,3.80
2018-06-15T14:16:36.688Z,3.27
2018-06-15T14:19:09.378Z,3.30
2018-06-15T14:21:42.591Z,3.77
2018-06-15T14:24:14.273Z,3.27
2018-06-15T14:26:44.367Z,2.80
2018-06-15T14:29:13.964Z,3.00
2018-06-15T14:31:43.989Z,3.12
2018-06-15T14:34:13.565Z,2.80
2018-06-15T14:36:42.738Z,3.70
2018-06-15T14:39:14.177Z,3.80
2018-06-15T14:41:45.013Z,3.30
2018-06-15T14:44:19.455Z,3.77
2018-06-15T14:46:48.790Z,2.77
2018-06-15T14:49:17.977Z,2.75
2018-06-15T14:51:47.710Z,3.02
2018-06-15T14:54:16.527Z,3.02
2018-06-15T14:56:45.276Z,2.72
2018-06-15T14:59:16.879Z,3.00
2018-06-15T15:01:52.919Z,3.10
2018-06-15T15:04:25.290Z,3.33
2018-06-15T15:07:01.467Z,3.27
2018-06-15T15:09:37.484Z,2.83
2018-06-15T15:12:11.607Z,3.02
2018-06-15T15:14:45.317Z,2.87
2018-06-15T15:17:14.420Z,2.77
2018-06-15T15:19:43.792Z,3.15
2018-06-15T15:22:13.411Z,3.10
2018-06-15T15:24:43.381Z,2.98
2018-06-15T15:27:12.967Z,3.60
2018-06-15T15:29:43.323Z,3.02
2018-06-15T15:32:15.740Z,3.60
2018-06-15T15:34:48.717Z,3.20
2018-06-15T15:37:17.963Z,3.55
2018-06-15T15:39:47.319Z,3.25
2018-06-15T15:42:33.407Z,3.05
2018-06-15T15:45:14.216Z,3.22
2018-06-15T15:47:43.541Z,3.33
2018-06-15T15:50:12.684Z,3.30
2018-06-15T15:52:41.526Z,3.33
2018-06-15T15:55:13.056Z,3.50
2018-06-15T15:57:46.755Z,3.62
2018-06-15T16:00:21.570Z,3.00
2018-06-15T16:02:50.402Z,3.30
2018-06-15T16:05:19.497Z,3.33
2018-06-15T16:07:49.006Z,3.17
2018-06-15T16:10:18.185Z,2.98
2018-06-15T16:12:50.520Z,2.80
2018-06-15T16:15:25.896Z,2.80
2018-06-15T16:18:10.450Z,3.30
2018-06-15T16:20:40.710Z,3.30
2018-06-15T16:23:15.205Z,3.22
2018-06-15T16:25:44.173Z,3.20
2018-06-15T16:28:14.395Z,2.70
2018-06-15T16:30:43.186Z,3.25
2018-06-15T16:33:12.595Z,3.22
2018-06-15T16:35:43.721Z,3.25
2018-06-15T16:38:14.952Z,3.35
2018-06-15T16:40:48.640Z,3.10
2018-06-15T16:43:20.619Z,3.02
2018-06-15T16:45:59.615Z,2.98
2018-06-15T16:48:33.336Z,2.92
2018-06-15T16:51:03.387Z,2.72
2018-06-15T16:53:37.040Z,3.10
2018-06-15T16:56:06.480Z,2.92
2018-06-15T16:58:37.075Z,2.62
2018-06-15T17:01:06.308Z,2.90
2018-06-15T17:03:39.449Z,2.67
2018-06-15T17:06:09.395Z,2.98
2018-06-15T17:08:39.075Z,2.72
2018-06-15T17:11:10.955Z,2.85
2018-06-15T17:13:40.466Z,3.12
2018-06-15T17:16:10.376Z,2.90
2018-06-15T17:18:43.079Z,3.08
2018-06-15T17:21:11.800Z,3.45
2018-06-15T17:23:41.161Z,2.70
2018-06-15T17:26:10.745Z,2.77
2018-06-15T17:28:40.363Z,2.70
2018-06-15T17:31:10.002Z,2.65
2018-06-15T17:33:39.912Z,3.00
2018-06-15T17:36:09.395Z,3.00
2018-06-15T17:38:40.249Z,2.70
2018-06-15T17:41:09.958Z,2.72
2018-06-15T17:43:45.273Z,2.77
2018-06-15T17:46:21.803Z,2.98
2018-06-15T17:48:59.143Z,2.90
2018-06-15T17:51:28.649Z,2.92
2018-06-15T17:54:01.386Z,2.95
2018-06-15T17:56:30.370Z,2.85
2018-06-15T17:59:00.197Z,2.58
2018-06-15T18:01:29.430Z,2.80
2018-06-15T18:03:58.917Z,2.67
2018-06-15T18:06:28.146Z,2.92
2018-06-15T18:09:01.040Z,2.70
2018-06-15T18:11:34.358Z,2.45
2018-06-15T18:14:08.820Z,2.90
2018-06-15T18:16:39.463Z,3.20
2018-06-15T18:19:09.204Z,3.40
2018-06-15T18:21:42.025Z,2.80
2018-06-15T18:24:11.479Z,2.65
2018-06-15T18:26:41.077Z,2.90
2018-06-15T18:29:12.053Z,2.58
2018-06-15T18:31:47.133Z,2.95
2018-06-15T18:34:24.915Z,2.90
2018-06-15T18:37:11.034Z,2.80
2018-06-15T18:39:41.497Z,3.00
2018-06-15T18:42:10.391Z,2.80
2018-06-15T18:44:39.215Z,2.80
2018-06-15T18:47:11.964Z,2.53
2018-06-15T18:49:42.501Z,3.50
2018-06-15T18:52:17.909Z,2.30
2018-06-15T18:54:54.690Z,2.80
2018-06-15T18:57:24.175Z,2.70
2018-06-15T18:59:54.850Z,2.67
2018-06-15T19:02:26.439Z,2.70
2018-06-15T19:05:01.371Z,3.00
2018-06-15T19:07:36.169Z,2.83
2018-06-15T19:10:09.892Z,2.70
2018-06-15T19:12:40.825Z,2.30
2018-06-15T19:15:10.836Z,2.40
2018-06-15T19:17:40.407Z,3.07
2018-06-15T19:20:15.656Z,2.80
2018-06-15T19:22:48.561Z,2.80
2018-06-15T19:25:18.279Z,2.73
2018-06-15T19:27:52.188Z,2.83
2018-06-15T19:30:21.137Z,2.90
2018-06-15T19:32:56.097Z,2.60
2018-06-15T19:35:26.198Z,2.83
2018-06-15T19:37:58.832Z,2.90
2018-06-15T19:40:33.162Z,2.97
2018-06-15T19:43:02.206Z,2.40
2018-06-15T19:45:31.650Z,2.90
2018-06-15T19:48:00.402Z,2.37
2018-06-15T19:50:30.460Z,2.20
2018-06-15T19:52:59.977Z,2.37
2018-06-15T19:55:31.818Z,2.33
2018-06-15T19:58:05.371Z,2.07
2018-06-15T20:00:37.740Z,2.20
2018-06-15T20:03:07.357Z,2.40
2018-06-15T20:05:40.789Z,2.47
2018-06-15T20:08:14.819Z,2.03
2018-06-15T20:10:45.172Z,2.30
2018-06-15T20:13:15.623Z,2.67
2018-06-15T20:15:44.459Z,2.07
2018-06-15T20:18:14.696Z,2.20
2018-06-15T20:20:56.995Z,2.30
2018-06-15T20:23:29.888Z,2.17
2018-06-15T20:26:02.673Z,2.27
2018-06-15T20:28:47.724Z,1.70
2018-06-15T20:31:18.094Z,2.30
2018-06-15T20:33:47.002Z,2.30
2018-06-15T20:36:19.412Z,2.40
2018-06-15T20:38:52.936Z,1.97
2018-06-15T20:41:22.670Z,2.30
2018-06-15T20:43:51.664Z,2.20
2018-06-15T20:46:21.161Z,2.50
2018-06-15T20:48:55.610Z,2.50
2018-06-15T20:51:24.458Z,2.40
2018-06-15T20:53:53.212Z,2.60
2018-06-15T20:56:27.010Z,2.50
2018-06-15T20:59:00.609Z,2.80
2018-06-15T21:01:30.004Z,2.53
2018-06-15T21:04:02.799Z,2.90
2018-06-15T21:06:32.376Z,2.97
2018-06-15T21:09:06.816Z,2.80
2018-06-15T21:11:35.538Z,2.80
2018-06-15T21:14:04.437Z,2.53
2018-06-15T21:16:33.414Z,3.07
2018-06-15T21:19:02.684Z,2.87
2018-06-15T21:21:31.975Z,2.80
2018-06-15T21:24:02.035Z,2.87
2018-06-15T21:26:35.670Z,2.47
2018-06-15T21:29:11.478Z,2.27
2018-06-15T21:31:41.331Z,2.50
2018-06-15T21:34:10.317Z,2.33
2018-06-15T21:36:39.868Z,2.90
2018-06-15T21:39:25.235Z,2.20
2018-06-15T21:41:54.266Z,2.97
2018-06-15T21:44:23.977Z,2.10
2018-06-15T21:46:52.595Z,2.20
2018-06-15T21:49:23.608Z,2.70
2018-06-15T21:51:56.868Z,2.23
2018-06-15T21:54:29.952Z,2.50
2018-06-15T21:57:06.191Z,2.80
2018-06-15T21:59:41.336Z,2.10
2018-06-15T22:02:13.202Z,2.27
2018-06-15T22:04:46.577Z,2.43
2018-06-15T22:07:18.959Z,2.60
2018-06-15T22:09:48.688Z,2.57
2018-06-15T22:12:17.560Z,2.63
2018-06-15T22:14:47.663Z,2.80
2018-06-15T22:17:17.175Z,2.23
2018-06-15T22:19:53.122Z,2.70
2018-06-15T22:22:22.984Z,2.80
2018-06-15T22:25:03.415Z,2.40
2018-06-15T22:27:33.508Z,2.63
2018-06-15T22:30:06.171Z,2.83
2018-06-15T22:32:36.994Z,2.83
2018-06-15T22:35:09.253Z,2.70
2018-06-15T22:37:38.275Z,3.03
2018-06-15T22:40:07.757Z,3.10
2018-06-15T22:42:39.325Z,3.33
2018-06-15T22:45:08.944Z,3.07
2018-06-15T22:47:37.699Z,2.73
2018-06-15T22:50:08.167Z,3.07
2018-06-15T22:52:43.307Z,2.60
2018-06-15T22:55:13.286Z,2.73
2018-06-15T22:57:42.440Z,2.90
2018-06-15T23:00:12.042Z,2.80
2018-06-15T23:02:40.842Z,2.70
2018-06-15T23:05:18.367Z,2.73
2018-06-15T23:07:48.772Z,2.43
2018-06-15T23:10:17.995Z,2.70
2018-06-15T23:12:51.922Z,2.50
2018-06-15T23:15:20.699Z,2.23
2018-06-15T23:17:49.984Z,2.53
2018-06-15T23:20:20.972Z,2.27
2018-06-15T23:23:01.252Z,2.53
2018-06-15T23:25:31.624Z,2.70
2018-06-15T23:28:08.518Z,2.43
2018-06-15T23:30:42.179Z,2.43
2018-06-15T23:33:19.052Z,2.60
2018-06-15T23:35:50.075Z,2.67
2018-06-15T23:38:19.467Z,2.70
2018-06-15T23:40:50.388Z,2.50
2018-06-15T23:43:22.936Z,2.60
2018-06-15T23:45:52.864Z,2.60
2018-06-15T23:48:25.540Z,2.53
2018-06-15T23:50:55.936Z,2.73
2018-06-15T23:53:27.476Z,2.60
2018-06-15T23:55:57.265Z,3.17
2018-06-15T23:58:27.651Z,3.00
